createdAt,value
2022-07-26T00:02:28.537Z,99850.25
2022-07-26T00:05:12.703Z,99849.03
2022-07-26T00:08:10.836Z,99842.66
2022-07-26T00:10:54.870Z,99851.44
2022-07-26T00:13:38.776Z,99845.78
2022-07-26T00:16:24.038Z,99838.72
2022-07-26T00:19:08.733Z,99841.72
2022-07-26T00:22:13.117Z,99832.75
2022-07-26T00:24:56.972Z,99841.34
2022-07-26T00:27:41.576Z,99838.88
2022-07-26T00:30:25.558Z,99818.50
2022-07-26T00:33:10.855Z,99844.09
2022-07-26T00:35:54.717Z,99840.47
2022-07-26T00:38:38.667Z,99838.66
2022-07-26T00:41:22.520Z,99843.94
2022-07-26T00:44:06.931Z,99841.19
2022-07-26T00:46:50.849Z,99837.34
2022-07-26T00:49:36.312Z,99803.44
2022-07-26T00:52:20.512Z,99836.88
2022-07-26T00:55:05.297Z,99831.13
2022-07-26T00:57:49.663Z,99832.59
2022-07-26T01:00:34.274Z,99782.22
2022-07-26T01:03:18.321Z,99788.91
2022-07-26T01:06:03.611Z,99807.34
2022-07-26T01:08:47.597Z,99830.47
2022-07-26T01:11:31.602Z,99822.47
2022-07-26T01:14:15.444Z,99702.56
2022-07-26T01:16:59.539Z,99819.94
2022-07-26T01:19:43.817Z,99803.91
2022-07-26T01:22:29.262Z,99779.69
2022-07-26T01:25:13.383Z,99787.22
2022-07-26T01:27:57.347Z,99816.69
2022-07-26T01:30:41.301Z,99788.91
2022-07-26T01:33:28.179Z,99813.63
2022-07-26T01:36:12.541Z,99796.50
2022-07-26T01:38:57.781Z,99805.84
2022-07-26T01:41:41.850Z,99814.06
2022-07-26T01:44:25.905Z,99812.69
2022-07-26T01:47:09.992Z,99804.31
2022-07-26T01:49:53.792Z,99783.84
2022-07-26T01:52:39.317Z,99775.66
2022-07-26T01:55:24.639Z,99783.53
2022-07-26T01:58:09.499Z,99811.75
2022-07-26T02:00:53.481Z,99811.28
2022-07-26T02:03:37.622Z,99801.72
2022-07-26T02:06:21.512Z,99804.56
2022-07-26T02:09:05.931Z,99814.13
2022-07-26T02:11:52.901Z,99796.06
2022-07-26T02:14:36.915Z,99811.56
2022-07-26T02:17:20.697Z,99790.50
2022-07-26T02:20:06.001Z,99811.03
2022-07-26T02:22:49.822Z,99784.97
2022-07-26T02:25:33.847Z,99794.72
2022-07-26T02:28:19.581Z,99764.53
2022-07-26T02:31:03.514Z,99760.97
2022-07-26T02:33:47.785Z,99794.34
2022-07-26T02:36:31.635Z,99787.53
2022-07-26T02:39:16.449Z,99785.97
2022-07-26T02:42:02.355Z,99790.75
2022-07-26T02:44:47.585Z,99787.97
2022-07-26T02:47:33.019Z,99799.38
2022-07-26T02:50:18.534Z,99801.09
2022-07-26T02:53:02.401Z,99784.84
2022-07-26T02:55:46.230Z,99785.59
2022-07-26T02:58:30.161Z,99795.94
2022-07-26T03:01:15.503Z,99783.53
2022-07-26T03:03:59.405Z,99793.41
2022-07-26T03:06:43.568Z,99794.72
2022-07-26T03:09:27.440Z,99790.13
2022-07-26T03:12:11.384Z,99797.34
2022-07-26T03:14:55.532Z,99782.06
2022-07-26T03:17:40.895Z,99789.13
2022-07-26T03:20:24.641Z,99704.25
2022-07-26T03:23:08.458Z,99798.56
2022-07-26T03:25:52.452Z,99800.78
2022-07-26T03:28:37.390Z,99796.88
2022-07-26T03:31:21.316Z,99789.03
2022-07-26T03:34:06.982Z,99784.59
2022-07-26T03:36:51.199Z,99807.88
2022-07-26T03:39:35.070Z,99798.25
2022-07-26T03:42:18.870Z,99805.97
2022-07-26T03:45:03.027Z,99811.38
2022-07-26T03:47:47.784Z,99804.88
2022-07-26T03:50:33.011Z,99807.47
2022-07-26T03:53:16.953Z,99679.50
2022-07-26T03:56:18.424Z,99814.47
2022-07-26T03:59:05.209Z,99791.81
2022-07-26T04:01:49.664Z,99808.31
2022-07-26T04:04:33.598Z,99797.59
2022-07-26T04:07:20.493Z,99802.03
2022-07-26T04:10:06.012Z,99810.44
2022-07-26T04:12:49.883Z,99804.25
2022-07-26T04:15:33.741Z,99795.38
2022-07-26T04:18:17.929Z,99801.06
2022-07-26T04:21:01.973Z,99790.16
2022-07-26T04:23:51.104Z,99783.91
2022-07-26T04:26:35.512Z,99789.31
2022-07-26T04:29:19.379Z,99790.63
2022-07-26T04:32:03.319Z,99778.16
2022-07-26T04:34:47.206Z,99795.41
2022-07-26T04:37:32.968Z,99795.91
2022-07-26T04:40:21.935Z,99782.03
2022-07-26T04:43:07.763Z,99792.97
2022-07-26T04:45:54.139Z,99769.47
2022-07-26T04:48:39.493Z,99775.56
2022-07-26T04:51:23.414Z,99796.84
2022-07-26T04:54:08.116Z,99779.38
2022-07-26T04:56:53.684Z,99795.44
2022-07-26T04:59:37.461Z,99797.50
2022-07-26T05:02:21.439Z,99803.03
2022-07-26T05:05:06.252Z,99772.41
2022-07-26T05:07:51.853Z,99784.53
2022-07-26T05:10:37.528Z,99803.22
2022-07-26T05:13:23.143Z,99796.53
2022-07-26T05:16:15.057Z,99795.75
2022-07-26T05:18:59.441Z,99800.63
2022-07-26T05:21:43.463Z,99803.03
2022-07-26T05:24:27.404Z,99794.69
2022-07-26T05:27:11.232Z,99806.03
2022-07-26T05:29:56.791Z,99803.06
2022-07-26T05:32:41.034Z,99803.66
2022-07-26T05:35:24.961Z,99751.00
2022-07-26T05:38:08.906Z,99799.63
2022-07-26T05:40:52.932Z,99794.22
2022-07-26T05:43:40.942Z,99796.09
2022-07-26T05:46:27.117Z,99811.19
2022-07-26T05:49:11.154Z,99785.00
2022-07-26T05:52:00.861Z,99798.53
2022-07-26T05:54:45.153Z,99794.31
2022-07-26T05:57:28.987Z,99795.97
2022-07-26T06:00:13.684Z,99802.63
2022-07-26T06:02:58.999Z,99781.09
2022-07-26T06:05:42.954Z,99795.72
2022-07-26T06:08:27.591Z,99799.53
2022-07-26T06:11:11.414Z,99788.31
2022-07-26T06:13:56.729Z,99791.53
2022-07-26T06:16:40.659Z,99795.31
2022-07-26T06:19:25.980Z,99788.72
2022-07-26T06:22:09.965Z,99791.38
2022-07-26T06:24:53.889Z,99785.50
2022-07-26T06:27:37.764Z,99787.72
2022-07-26T06:30:21.609Z,99786.00
2022-07-26T06:33:05.998Z,99753.28
2022-07-26T06:35:51.497Z,99760.75
2022-07-26T06:38:35.418Z,99785.34
2022-07-26T06:41:19.330Z,99787.22
2022-07-26T06:44:03.123Z,99787.31
2022-07-26T06:46:47.027Z,99785.03
2022-07-26T06:49:31.051Z,99782.03
2022-07-26T06:52:16.363Z,99780.41
2022-07-26T06:55:00.627Z,99780.34
2022-07-26T06:57:49.660Z,99783.66
2022-07-26T07:00:34.556Z,99788.03
2022-07-26T07:03:18.473Z,99787.97
2022-07-26T07:06:02.428Z,99780.50
2022-07-26T07:08:49.053Z,99775.47
2022-07-26T07:11:32.935Z,99783.00
2022-07-26T07:14:16.873Z,99777.59
2022-07-26T07:17:00.881Z,99786.56
2022-07-26T07:19:44.722Z,99783.22
2022-07-26T07:22:28.647Z,99775.50
2022-07-26T07:25:14.711Z,99786.94
2022-07-26T07:27:58.805Z,99782.13
2022-07-26T07:30:42.707Z,99787.19
2022-07-26T07:33:27.346Z,99784.19
2022-07-26T07:36:20.749Z,99783.63
2022-07-26T07:39:07.035Z,99759.97
2022-07-26T07:41:54.320Z,99770.38
2022-07-26T07:44:38.406Z,99783.63
2022-07-26T07:47:22.970Z,99783.28
2022-07-26T07:50:08.323Z,99776.13
2022-07-26T07:52:52.180Z,99764.56
2022-07-26T07:55:41.366Z,99779.72
2022-07-26T07:58:29.601Z,99782.09
2022-07-26T08:01:13.562Z,99770.72
2022-07-26T08:03:58.246Z,99774.38
2022-07-26T08:06:42.866Z,99772.63
2022-07-26T08:09:34.777Z,99773.97
2022-07-26T08:12:18.746Z,99772.59
2022-07-26T08:15:07.234Z,99758.53
2022-07-26T08:17:54.084Z,99763.25
2022-07-26T08:20:38.764Z,99765.41
2022-07-26T08:23:24.383Z,99771.81
2022-07-26T08:26:08.524Z,99756.31
2022-07-26T08:28:59.983Z,99756.97
2022-07-26T08:31:45.873Z,99762.31
2022-07-26T08:34:29.922Z,99756.78
2022-07-26T08:37:17.617Z,99722.56
2022-07-26T08:40:01.931Z,99673.50
2022-07-26T08:42:52.636Z,99743.00
2022-07-26T08:45:36.869Z,99743.19
2022-07-26T08:48:22.133Z,99755.94
2022-07-26T08:51:11.094Z,99748.16
2022-07-26T08:54:04.443Z,99737.19
2022-07-26T08:56:52.307Z,99748.25
2022-07-26T08:59:36.253Z,99739.78
2022-07-26T09:02:20.168Z,99710.91
2022-07-26T09:05:07.011Z,99728.88
2022-07-26T09:07:50.924Z,99729.66
2022-07-26T09:10:39.156Z,99722.56
2022-07-26T09:13:23.418Z,99717.78
2022-07-26T09:16:11.512Z,99721.31
2022-07-26T09:18:55.991Z,99699.47
2022-07-26T09:21:41.169Z,99727.94
2022-07-26T09:24:36.032Z,99708.78
2022-07-26T09:27:20.160Z,99711.81
2022-07-26T09:30:09.199Z,99706.22
2022-07-26T09:33:04.184Z,99710.44
2022-07-26T09:36:02.299Z,99711.34
2022-07-26T09:38:49.170Z,99707.31
2022-07-26T09:41:35.897Z,99711.59
2022-07-26T09:44:24.818Z,99703.00
2022-07-26T09:47:08.757Z,99707.34
2022-07-26T09:50:11.619Z,99699.97
2022-07-26T09:53:04.746Z,99699.47
2022-07-26T09:55:59.190Z,99699.19
2022-07-26T09:58:43.776Z,99706.44
2022-07-26T10:01:27.694Z,99703.50
2022-07-26T10:04:12.302Z,99702.22
2022-07-26T10:06:58.208Z,99696.72
2022-07-26T10:09:47.674Z,99674.69
2022-07-26T10:12:35.212Z,99693.81
2022-07-26T10:15:41.602Z,99693.75
2022-07-26T10:18:47.441Z,99698.66
2022-07-26T10:21:33.095Z,99692.91
2022-07-26T10:24:26.535Z,99683.03
2022-07-26T10:27:30.337Z,99691.75
2022-07-26T10:30:33.824Z,99649.53
2022-07-26T10:33:23.158Z,99682.44
2022-07-26T10:36:23.012Z,99680.16
2022-07-26T10:39:10.619Z,99671.81
2022-07-26T10:42:00.098Z,99674.22
2022-07-26T10:44:45.294Z,99679.88
2022-07-26T10:47:35.122Z,99663.69
2022-07-26T10:50:33.353Z,99661.38
2022-07-26T10:53:23.529Z,99663.28
2022-07-26T10:56:07.737Z,99655.06
2022-07-26T10:58:51.469Z,99659.09
2022-07-26T11:01:36.216Z,99662.69
2022-07-26T11:04:22.578Z,99633.50
2022-07-26T11:07:06.548Z,99644.66
2022-07-26T11:09:50.356Z,99634.41
2022-07-26T11:12:34.245Z,99649.91
2022-07-26T11:15:19.726Z,99644.22
2022-07-26T11:18:12.873Z,99611.09
2022-07-26T11:21:08.984Z,99639.50
2022-07-26T11:23:52.952Z,99639.31
2022-07-26T11:26:42.819Z,99629.06
2022-07-26T11:29:38.152Z,99608.72
2022-07-26T11:32:27.631Z,99623.47
2022-07-26T11:35:12.083Z,99613.56
2022-07-26T11:38:11.330Z,99616.78
2022-07-26T11:40:55.855Z,99630.66
2022-07-26T11:43:39.785Z,99622.38
2022-07-26T11:46:25.126Z,99617.63
2022-07-26T11:49:17.407Z,99609.91
2022-07-26T11:52:02.909Z,99607.88
2022-07-26T11:54:49.839Z,99612.03
2022-07-26T11:57:33.818Z,99599.56
2022-07-26T12:00:19.388Z,99604.53
2022-07-26T12:03:03.221Z,99605.88
2022-07-26T12:06:03.241Z,99603.56
2022-07-26T12:08:52.728Z,99588.19
2022-07-26T12:11:41.909Z,99600.81
2022-07-26T12:14:29.825Z,99603.25
2022-07-26T12:17:15.385Z,99574.97
2022-07-26T12:20:12.123Z,99575.88
2022-07-26T12:22:57.732Z,99579.59
2022-07-26T12:25:44.896Z,99590.97
2022-07-26T12:28:44.124Z,99570.22
2022-07-26T12:31:30.034Z,99562.63
2022-07-26T12:34:14.466Z,99580.69
2022-07-26T12:37:08.402Z,99577.00
2022-07-26T12:40:05.964Z,99585.28
2022-07-26T12:43:00.728Z,99568.44
2022-07-26T12:45:48.582Z,99561.13
2022-07-26T12:48:32.583Z,99562.47
2022-07-26T12:51:16.596Z,99568.41
2022-07-26T12:54:00.479Z,99574.09
2022-07-26T12:56:44.418Z,99567.44
2022-07-26T12:59:30.890Z,99566.97
2022-07-26T13:02:17.866Z,99557.69
2022-07-26T13:05:04.461Z,99565.25
2022-07-26T13:07:48.592Z,99551.34
2022-07-26T13:10:34.647Z,99572.25
2022-07-26T13:13:19.298Z,99554.34
2022-07-26T13:16:06.769Z,99547.97
2022-07-26T13:18:56.502Z,99568.78
2022-07-26T13:21:40.472Z,99556.50
2022-07-26T13:24:25.079Z,99556.53
2022-07-26T13:27:09.712Z,99554.78
2022-07-26T13:29:53.569Z,99553.84
2022-07-26T13:32:37.517Z,99555.97
2022-07-26T13:35:22.838Z,99529.84
2022-07-26T13:38:06.765Z,99557.59
2022-07-26T13:40:51.445Z,99546.19
2022-07-26T13:43:36.462Z,99547.03
2022-07-26T13:46:20.302Z,99534.84
2022-07-26T13:49:05.578Z,99545.28
2022-07-26T13:52:00.040Z,99538.34
2022-07-26T13:54:43.918Z,99532.38
2022-07-26T13:57:47.969Z,99540.97
2022-07-26T14:00:31.659Z,99535.13
2022-07-26T14:03:16.099Z,99545.53
2022-07-26T14:06:00.065Z,99541.56
2022-07-26T14:08:45.619Z,99536.47
2022-07-26T14:11:29.435Z,99541.81
2022-07-26T14:14:13.864Z,99537.06
2022-07-26T14:16:58.014Z,99527.09
2022-07-26T14:19:41.965Z,99530.56
2022-07-26T14:22:26.107Z,99498.88
2022-07-26T14:25:11.930Z,99539.72
2022-07-26T14:27:56.540Z,99512.34
2022-07-26T14:30:40.973Z,99524.34
2022-07-26T14:33:24.862Z,99525.63
2022-07-26T14:36:09.626Z,99525.31
2022-07-26T14:38:53.543Z,99534.00
2022-07-26T14:41:38.850Z,99524.00
2022-07-26T14:44:22.772Z,99514.91
2022-07-26T14:47:08.687Z,99513.47
2022-07-26T14:49:52.630Z,99530.75
2022-07-26T14:52:38.354Z,99517.78
2022-07-26T14:55:25.392Z,99521.34
2022-07-26T14:58:11.073Z,99512.63
2022-07-26T15:00:55.578Z,99514.66
2022-07-26T15:03:39.705Z,99508.34
2022-07-26T15:06:23.837Z,99478.06
2022-07-26T15:09:07.871Z,99520.97
2022-07-26T15:11:52.274Z,99492.81
2022-07-26T15:14:37.927Z,99504.19
2022-07-26T15:17:21.984Z,99502.09
2022-07-26T15:20:07.851Z,99494.25
2022-07-26T15:22:53.954Z,99506.44
2022-07-26T15:25:38.209Z,99484.53
2022-07-26T15:28:22.113Z,99504.50
2022-07-26T15:31:07.380Z,99508.44
2022-07-26T15:33:51.422Z,99509.72
2022-07-26T15:36:35.785Z,99395.81
2022-07-26T15:39:19.743Z,99510.16
2022-07-26T15:42:07.503Z,99502.56
2022-07-26T15:44:51.910Z,99510.66
2022-07-26T15:47:53.985Z,99511.69
2022-07-26T15:50:40.138Z,99506.94
2022-07-26T15:53:24.332Z,99507.44
2022-07-26T15:56:08.300Z,99515.16
2022-07-26T15:58:52.199Z,99526.72
2022-07-26T16:01:36.548Z,99518.81
2022-07-26T16:04:22.036Z,99520.69
2022-07-26T16:07:06.092Z,99517.50
2022-07-26T16:09:50.307Z,99519.69
2022-07-26T16:12:34.889Z,99517.13
2022-07-26T16:15:19.238Z,99524.13
2022-07-26T16:18:06.419Z,99523.84
2022-07-26T16:20:51.962Z,99510.31
2022-07-26T16:23:36.621Z,99519.09
2022-07-26T16:26:20.432Z,99526.44
2022-07-26T16:29:05.992Z,99521.81
2022-07-26T16:31:50.143Z,99520.50
2022-07-26T16:34:34.895Z,99498.00
2022-07-26T16:37:20.124Z,99521.28
2022-07-26T16:40:04.121Z,99520.41
2022-07-26T16:42:48.108Z,99529.38
2022-07-26T16:45:31.987Z,99524.59
2022-07-26T16:48:17.134Z,99519.25
2022-07-26T16:51:01.161Z,99518.69
2022-07-26T16:53:48.485Z,99518.34
2022-07-26T16:56:32.640Z,99520.50
2022-07-26T16:59:17.762Z,99522.22
2022-07-26T17:02:03.084Z,99524.19
2022-07-26T17:04:47.157Z,99524.13
2022-07-26T17:07:32.089Z,99490.84
2022-07-26T17:10:18.284Z,99519.72
2022-07-26T17:13:02.267Z,99524.38
2022-07-26T17:15:46.244Z,99525.66
2022-07-26T17:18:30.547Z,99510.56
2022-07-26T17:21:14.552Z,99516.91
2022-07-26T17:24:00.578Z,99513.00
2022-07-26T17:26:49.216Z,99534.59
2022-07-26T17:29:33.148Z,99532.41
2022-07-26T17:32:17.077Z,99536.19
2022-07-26T17:35:01.039Z,99534.03
2022-07-26T17:37:47.470Z,99531.09
2022-07-26T17:40:31.758Z,99534.91
2022-07-26T17:43:17.616Z,99530.06
2022-07-26T17:46:01.578Z,99533.81
2022-07-26T17:48:47.175Z,99532.22
2022-07-26T17:51:31.136Z,99530.03
2022-07-26T17:54:15.029Z,99531.75
2022-07-26T17:56:58.883Z,99525.59
2022-07-26T17:59:44.546Z,99536.75
2022-07-26T18:02:28.424Z,99523.03
2022-07-26T18:05:12.487Z,99536.00
2022-07-26T18:07:56.393Z,99531.56
2022-07-26T18:10:40.195Z,99548.06
2022-07-26T18:13:24.751Z,99555.88
2022-07-26T18:16:10.092Z,99542.06
2022-07-26T18:18:54.324Z,99553.72
2022-07-26T18:21:38.091Z,99556.22
2022-07-26T18:24:22.011Z,99572.91
2022-07-26T18:27:06.306Z,99561.25
2022-07-26T18:29:50.514Z,99555.38
2022-07-26T18:32:36.047Z,99557.50
2022-07-26T18:35:20.144Z,99544.59
2022-07-26T18:38:04.392Z,99574.06
2022-07-26T18:40:48.499Z,99574.78
2022-07-26T18:43:32.544Z,99571.50
2022-07-26T18:46:16.637Z,99551.66
2022-07-26T18:49:02.379Z,99554.56
2022-07-26T18:51:48.456Z,99537.28
2022-07-26T18:54:33.113Z,99582.22
2022-07-26T18:57:16.920Z,99586.97
2022-07-26T19:00:00.895Z,99567.75
2022-07-26T19:02:46.654Z,99574.03
2022-07-26T19:05:35.370Z,99579.84
2022-07-26T19:08:19.582Z,99572.31
2022-07-26T19:11:03.667Z,99572.44
2022-07-26T19:13:47.737Z,99569.06
2022-07-26T19:16:31.771Z,99523.00
2022-07-26T19:19:16.246Z,99579.09
2022-07-26T19:22:01.692Z,99567.47
2022-07-26T19:24:58.626Z,99575.66
2022-07-26T19:27:42.779Z,99567.97
2022-07-26T19:30:26.677Z,99579.88
2022-07-26T19:33:10.643Z,99572.38
2022-07-26T19:35:54.621Z,99578.44
2022-07-26T19:38:39.888Z,99534.59
2022-07-26T19:41:24.139Z,99574.63
2022-07-26T19:44:07.971Z,99582.19
2022-07-26T19:46:56.970Z,99575.53
2022-07-26T19:49:41.461Z,99576.84
2022-07-26T19:52:25.306Z,99563.97
2022-07-26T19:55:11.467Z,99555.19
2022-07-26T19:57:55.461Z,99549.44
2022-07-26T20:00:39.646Z,99579.97
2022-07-26T20:03:23.557Z,99575.53
2022-07-26T20:06:07.836Z,99583.47
2022-07-26T20:08:52.414Z,99584.06
2022-07-26T20:11:38.853Z,99582.44
2022-07-26T20:14:22.848Z,99585.44
2022-07-26T20:17:12.149Z,99572.25
2022-07-26T20:19:57.062Z,99585.81
2022-07-26T20:22:40.924Z,99587.03
2022-07-26T20:25:25.272Z,99569.44
2022-07-26T20:28:10.513Z,99589.53
2022-07-26T20:30:55.121Z,99590.88
2022-07-26T20:33:39.142Z,99583.03
2022-07-26T20:36:23.116Z,99587.16
2022-07-26T20:39:07.152Z,99558.97
2022-07-26T20:41:51.146Z,99574.84
2022-07-26T20:44:39.620Z,99582.47
2022-07-26T20:47:23.554Z,99593.72
2022-07-26T20:50:08.941Z,99584.38
2022-07-26T20:52:52.839Z,99587.78
2022-07-26T20:55:36.629Z,99587.22
2022-07-26T20:58:21.674Z,99595.78
2022-07-26T21:01:07.605Z,99577.41
2022-07-26T21:03:51.484Z,99602.28
2022-07-26T21:06:35.343Z,99602.75
2022-07-26T21:09:19.263Z,99596.31
2022-07-26T21:12:03.213Z,99576.41
2022-07-26T21:14:47.178Z,99588.41
2022-07-26T21:17:32.721Z,99596.44
2022-07-26T21:20:18.769Z,99596.91
2022-07-26T21:23:16.079Z,99594.00
2022-07-26T21:26:01.185Z,99598.19
2022-07-26T21:28:45.059Z,99591.97
2022-07-26T21:31:29.004Z,99595.13
2022-07-26T21:34:14.356Z,99600.22
2022-07-26T21:36:58.299Z,99597.84
2022-07-26T21:39:42.278Z,99585.41
2022-07-26T21:42:26.905Z,99573.13
2022-07-26T21:45:11.611Z,99588.97
2022-07-26T21:47:55.476Z,99597.41
2022-07-26T21:50:40.720Z,99551.22
2022-07-26T21:53:24.563Z,99580.94
2022-07-26T21:56:08.490Z,99587.50
2022-07-26T21:58:52.420Z,99597.19
2022-07-26T22:01:36.285Z,99595.31
2022-07-26T22:04:21.968Z,99590.44
2022-07-26T22:07:07.284Z,99576.59
2022-07-26T22:09:51.149Z,99585.19
2022-07-26T22:12:35.042Z,99573.41
2022-07-26T22:15:19.124Z,99576.59
2022-07-26T22:18:03.468Z,99548.13
2022-07-26T22:20:49.244Z,99542.59
2022-07-26T22:23:34.501Z,99581.00
2022-07-26T22:26:18.866Z,99575.94
2022-07-26T22:29:03.138Z,99572.91
2022-07-26T22:31:47.032Z,99589.78
2022-07-26T22:34:30.981Z,99570.69
2022-07-26T22:37:14.942Z,99573.97
2022-07-26T22:40:00.288Z,99562.50
2022-07-26T22:42:44.737Z,99578.41
2022-07-26T22:45:29.815Z,99567.41
2022-07-26T22:48:13.844Z,99564.63
2022-07-26T22:50:57.965Z,99551.13
2022-07-26T22:53:41.950Z,99563.84
2022-07-26T22:56:27.375Z,99569.22
2022-07-26T22:59:11.619Z,99565.53
2022-07-26T23:01:56.754Z,99554.69
2022-07-26T23:04:40.740Z,99559.00
2022-07-26T23:07:24.540Z,99560.44
2022-07-26T23:10:10.674Z,99570.28
2022-07-26T23:12:56.512Z,99564.69
2022-07-26T23:15:40.431Z,99563.28
2022-07-26T23:18:24.493Z,99564.53
2022-07-26T23:21:08.537Z,99560.59
2022-07-26T23:23:52.425Z,99558.06
2022-07-26T23:26:36.533Z,99565.38
2022-07-26T23:29:21.851Z,99572.78
2022-07-26T23:32:06.501Z,99558.31
2022-07-26T23:34:52.359Z,99570.75
2022-07-26T23:37:36.203Z,99562.31
2022-07-26T23:40:21.167Z,99553.28
2022-07-26T23:43:05.214Z,99522.88
2022-07-26T23:45:50.541Z,99560.13
2022-07-26T23:48:34.438Z,99565.50
2022-07-26T23:51:19.535Z,99566.69
2022-07-26T23:54:03.534Z,99565.06
2022-07-26T23:56:47.626Z,99574.97
2022-07-26T23:59:31.440Z,99567.41
